Main page
METAR-TAF:

METAR-TAF

Airports :

Gibraltar International Airport

Gibraltar, Gibraltar

latitude: 36-09N, longitude: 005-21W, elevation: 5 m

Current weather observation

The report was made 57 minutes ago, at 22:50 UTC
Wind 3 kt from the West/Southwest
Temperature 15°C
Humidity 77%
Pressure 1023 hPa
Visibility 10 km or more

METAR: LXGB 282250Z AUTO 25003KT 9999 // NCD 15/11 Q1023

Time: 00:47 (23:47 UTC)

Forecast

The report was made 7 hours and 15 minutes ago, at 16:32 UTC
Forecast valid from 28 at 18 UTC to 28 at 23 UTC
Wind 6 kt from the East
Visibility 10 km or more
no clouds below 1500 m and no cumulonimbus
Probability 30%
from 28 at 18 UTC to 28 at 23 UTC
Visibility: 7000 m
haze

TAF: LXGB 281632Z 2818/2823 10006KT CAVOK PROB30 2818/2823 7000 HZ

Weather observations and forecasts of more than 4000 airports (METAR and TAF reports).

The available stations are represented by yellow and red dots on the map.

Hover mouse over dot to see the name of the station.

Then click to see weather observations and forecasts.

To change the map : click on the green buttons with a black cross to zoom in, on the green button with a dash to zoom out, or on the green arrows for adjacent maps.


METAR-TAF: